Time;durP1;ratioP1;P1;durP2;ratioP2;P2;SDS_P1;SDS_P2;PMS_P1;PMS_P2;Temp;Humidity;BMP_temperature;BMP_pressure;BME280_temperature;BME280_humidity;BME280_pressure;Samples;Min_cycle;Max_cycle;Signal;HPM_P1;HPM_P2
2023/01/17 00:01:50;;;;;;;3.35;1.67;;;;;;;;;;6342144;22;20142;-63
2023/01/17 00:09:52;;;;;;;1.60;1.40;;;;;;;;;;6341883;22;20145;-63
2023/01/17 00:12:19;;;;;;;2.85;1.50;;;;;;;;;;6342100;22;20178;-63
2023/01/17 00:14:45;;;;;;;2.20;1.48;;;;;;;;;;6342161;22;20214;-63
2023/01/17 00:17:11;;;;;;;2.65;1.70;;;;;;;;;;6341358;22;20244;-63
2023/01/17 01:34:25;;;;;;;3.00;2.08;;;;;;;;;;6341202;22;20480;-64
2023/01/17 01:36:51;;;;;;;4.32;2.05;;;;;;;;;;6341714;22;20162;-64
2023/01/17 01:39:17;;;;;;;2.58;1.88;;;;;;;;;;6341406;22;20142;-64
2023/01/17 01:41:43;;;;;;;3.22;2.03;;;;;;;;;;6341062;22;20142;-64
2023/01/17 01:44:28;;;;;;;2.35;1.70;;;;;;;;;;6341409;22;20138;-64
2023/01/17 01:46:54;;;;;;;3.97;2.45;;;;;;;;;;6341612;22;20146;-64
2023/01/17 01:49:23;;;;;;;2.85;1.90;;;;;;;;;;6341354;22;20150;-64
2023/01/17 01:51:58;;;;;;;3.10;1.90;;;;;;;;;;6341101;22;20556;-63
2023/01/17 01:54:26;;;;;;;2.95;1.85;;;;;;;;;;6350592;22;20143;-63
2023/01/17 01:56:53;;;;;;;3.65;1.98;;;;;;;;;;6363582;22;20177;-63
2023/01/17 01:59:20;;;;;;;4.78;2.45;;;;;;;;;;6363197;22;20210;-64
2023/01/17 02:01:47;;;;;;;2.53;1.60;;;;;;;;;;6354941;22;20358;-63
2023/01/17 02:04:14;;;;;;;2.25;1.77;;;;;;;;;;6352004;22;20162;-64
2023/01/17 02:06:49;;;;;;;2.63;1.95;;;;;;;;;;6347798;22;20142;-63
2023/01/17 02:09:16;;;;;;;3.05;1.80;;;;;;;;;;6346808;22;20224;-64
2023/01/17 02:11:43;;;;;;;2.95;2.08;;;;;;;;;;6345335;22;20138;-63
2023/01/17 02:14:14;;;;;;;2.20;1.73;;;;;;;;;;6341220;22;20146;-63
2023/01/17 02:16:46;;;;;;;5.70;2.20;;;;;;;;;;6341222;22;20186;-63
2023/01/17 02:19:12;;;;;;;2.83;1.95;;;;;;;;;;6340798;22;20134;-64
2023/01/17 02:21:44;;;;;;;2.25;1.60;;;;;;;;;;6340892;22;20162;-63
2023/01/17 02:24:10;;;;;;;3.38;1.92;;;;;;;;;;6341281;22;20141;-63
2023/01/17 02:26:44;;;;;;;4.78;2.13;;;;;;;;;;6342957;22;20147;-63
2023/01/17 02:29:29;;;;;;;4.47;1.90;;;;;;;;;;6342772;22;20134;-63
2023/01/17 02:32:04;;;;;;;2.78;2.03;;;;;;;;;;6342355;22;20153;-63
2023/01/17 02:34:30;;;;;;;4.13;2.03;;;;;;;;;;6342730;22;20134;-63
2023/01/17 02:37:01;;;;;;;3.17;2.08;;;;;;;;;;6342354;22;20170;-63
2023/01/17 02:39:29;;;;;;;5.20;2.00;;;;;;;;;;6342476;22;20192;-63
2023/01/17 02:41:59;;;;;;;5.28;2.00;;;;;;;;;;6341268;22;20142;-64
2023/01/17 02:44:25;;;;;;;2.45;1.60;;;;;;;;;;6340880;22;20145;-63
2023/01/17 02:46:52;;;;;;;3.00;1.90;;;;;;;;;;6341984;22;20142;-64
2023/01/17 02:49:21;;;;;;;3.67;2.05;;;;;;;;;;6342387;22;20564;-64
2023/01/17 02:52:04;;;;;;;5.35;2.00;;;;;;;;;;6342741;22;20172;-63
2023/01/17 02:54:51;;;;;;;5.00;2.10;;;;;;;;;;6342747;22;20172;-64
2023/01/17 02:57:41;;;;;;;3.70;2.15;;;;;;;;;;6342648;22;20162;-63
2023/01/17 03:00:25;;;;;;;2.30;1.83;;;;;;;;;;6342871;22;20214;-63
2023/01/17 03:02:59;;;;;;;2.53;2.00;;;;;;;;;;6343340;22;20130;-64
2023/01/17 03:05:31;;;;;;;5.40;2.15;;;;;;;;;;6342931;22;20548;-62
2023/01/17 03:07:58;;;;;;;2.80;1.52;;;;;;;;;;6343032;22;20156;-62
2023/01/17 03:10:24;;;;;;;2.83;2.08;;;;;;;;;;6342996;22;20142;-63
2023/01/17 03:12:56;;;;;;;5.55;2.10;;;;;;;;;;6342701;22;20153;-63
2023/01/17 03:15:22;;;;;;;2.53;1.90;;;;;;;;;;6342771;22;20147;-63
2023/01/17 03:17:50;;;;;;;3.63;1.85;;;;;;;;;;6342443;22;20170;-63
2023/01/17 03:20:16;;;;;;;2.65;1.95;;;;;;;;;;6342387;22;20135;-64
2023/01/17 03:22:42;;;;;;;2.58;1.90;;;;;;;;;;6341979;22;20525;-63
2023/01/17 03:25:08;;;;;;;3.05;1.77;;;;;;;;;;6342521;22;20199;-64
2023/01/17 03:27:34;;;;;;;2.30;1.70;;;;;;;;;;6342476;22;20146;-63
2023/01/17 03:30:00;;;;;;;2.63;1.88;;;;;;;;;;6342746;22;20489;-63
2023/01/17 03:32:26;;;;;;;3.03;1.98;;;;;;;;;;6342441;22;20142;-63
2023/01/17 03:34:52;;;;;;;2.95;1.70;;;;;;;;;;6342189;22;20438;-63
2023/01/17 03:37:19;;;;;;;7.03;2.30;;;;;;;;;;6342248;22;20166;-64
2023/01/17 03:39:44;;;;;;;2.45;2.00;;;;;;;;;;6342248;22;20243;-64
2023/01/17 03:42:10;;;;;;;2.95;1.92;;;;;;;;;;6342299;22;20545;-64
2023/01/17 03:44:36;;;;;;;4.63;2.10;;;;;;;;;;6341895;22;20533;-63
2023/01/17 03:47:02;;;;;;;4.18;2.10;;;;;;;;;;6341794;22;20146;-63
2023/01/17 03:49:28;;;;;;;3.30;2.00;;;;;;;;;;6342202;22;20185;-63
2023/01/17 03:51:54;;;;;;;3.47;2.05;;;;;;;;;;6341940;22;20146;-63
2023/01/17 03:54:20;;;;;;;2.20;1.95;;;;;;;;;;6342203;22;20152;-63
2023/01/17 03:56:46;;;;;;;3.45;2.00;;;;;;;;;;6341556;22;20190;-63
2023/01/17 03:59:12;;;;;;;2.05;1.55;;;;;;;;;;6341915;22;20412;-63
2023/01/17 04:01:38;;;;;;;3.40;2.10;;;;;;;;;;6341918;22;20134;-64
2023/01/17 04:04:04;;;;;;;2.03;1.83;;;;;;;;;;6341911;22;20550;-62
2023/01/17 04:06:30;;;;;;;2.22;1.85;;;;;;;;;;6342171;22;20560;-63
2023/01/17 04:08:56;;;;;;;2.30;1.80;;;;;;;;;;6342066;22;20158;-64
2023/01/17 04:11:22;;;;;;;2.15;1.83;;;;;;;;;;6342187;22;20169;-63
2023/01/17 04:13:48;;;;;;;3.13;1.70;;;;;;;;;;6341790;22;20142;-62
2023/01/17 04:16:15;;;;;;;2.10;1.58;;;;;;;;;;6342366;22;20166;-62
2023/01/17 04:18:41;;;;;;;2.15;1.50;;;;;;;;;;6342215;22;20146;-64
2023/01/17 04:21:07;;;;;;;2.38;1.60;;;;;;;;;;6343271;22;20154;-64
2023/01/17 04:23:34;;;;;;;1.80;1.52;;;;;;;;;;6343873;22;20205;-64
2023/01/17 04:26:02;;;;;;;1.73;1.50;;;;;;;;;;6346003;22;20147;-63
2023/01/17 04:28:28;;;;;;;2.55;1.50;;;;;;;;;;6345075;22;20493;-64
2023/01/17 04:30:57;;;;;;;2.88;1.55;;;;;;;;;;6344864;22;20141;-64
2023/01/17 04:33:23;;;;;;;1.88;1.35;;;;;;;;;;6343762;22;20525;-63
2023/01/17 04:35:49;;;;;;;2.42;1.63;;;;;;;;;;6343637;22;20145;-63
2023/01/17 04:38:15;;;;;;;1.95;1.60;;;;;;;;;;6342423;22;20209;-62
2023/01/17 04:40:41;;;;;;;3.38;1.52;;;;;;;;;;6342214;22;20233;-62
2023/01/17 04:43:07;;;;;;;1.52;1.42;;;;;;;;;;6341681;22;20135;-62
2023/01/17 04:45:33;;;;;;;3.67;1.55;;;;;;;;;;6341572;22;20213;-63
2023/01/17 04:48:03;;;;;;;1.70;1.60;;;;;;;;;;6341917;22;20142;-61
2023/01/17 04:50:29;;;;;;;2.30;1.95;;;;;;;;;;6341790;22;20154;-63
2023/01/17 04:52:55;;;;;;;2.03;1.60;;;;;;;;;;6341804;22;20146;-64
2023/01/17 04:55:21;;;;;;;3.00;1.73;;;;;;;;;;6341626;22;20146;-64
2023/01/17 04:57:47;;;;;;;2.00;1.80;;;;;;;;;;6341496;22;20170;-64
2023/01/17 05:00:14;;;;;;;2.05;1.65;;;;;;;;;;6341793;22;20142;-64
2023/01/17 05:02:40;;;;;;;1.90;1.70;;;;;;;;;;6341947;22;20145;-64
2023/01/17 05:05:06;;;;;;;2.10;1.65;;;;;;;;;;6341222;22;20142;-62
2023/01/17 05:07:32;;;;;;;2.63;1.83;;;;;;;;;;6341555;22;20154;-62
2023/01/17 05:10:01;;;;;;;2.92;1.77;;;;;;;;;;6340981;22;20232;-62
2023/01/17 05:12:27;;;;;;;3.38;1.90;;;;;;;;;;6341938;22;20161;-63
2023/01/17 05:14:53;;;;;;;1.70;1.50;;;;;;;;;;6342155;22;20438;-64
2023/01/17 05:17:19;;;;;;;2.50;1.65;;;;;;;;;;6341441;22;20162;-64
2023/01/17 05:19:45;;;;;;;2.20;1.63;;;;;;;;;;6340961;22;20207;-64
2023/01/17 05:22:14;;;;;;;2.90;1.77;;;;;;;;;;6341087;22;20561;-63
2023/01/17 05:24:42;;;;;;;2.03;1.75;;;;;;;;;;6341589;22;20142;-63
2023/01/17 05:27:08;;;;;;;2.20;1.60;;;;;;;;;;6341641;22;20142;-63
2023/01/17 05:29:34;;;;;;;1.92;1.67;;;;;;;;;;6341456;22;20223;-63
2023/01/17 05:32:00;;;;;;;2.60;1.80;;;;;;;;;;6341503;22;20542;-63
2023/01/17 05:34:26;;;;;;;2.10;1.88;;;;;;;;;;6341505;22;20142;-63
2023/01/17 05:36:53;;;;;;;2.30;2.00;;;;;;;;;;6341403;22;20463;-63
2023/01/17 05:39:19;;;;;;;2.80;2.00;;;;;;;;;;6341298;22;20138;-63
2023/01/17 05:41:45;;;;;;;3.13;2.08;;;;;;;;;;6341524;22;20148;-63
2023/01/17 05:44:12;;;;;;;2.97;1.90;;;;;;;;;;6366077;22;20152;-63
2023/01/17 05:46:37;;;;;;;3.33;2.17;;;;;;;;;;6341166;22;20568;-63
2023/01/17 05:49:04;;;;;;;3.33;2.00;;;;;;;;;;6341389;22;20153;-63
2023/01/17 05:51:31;;;;;;;2.30;1.98;;;;;;;;;;6341753;22;20142;-63
2023/01/17 05:53:57;;;;;;;2.17;1.98;;;;;;;;;;6341511;22;20138;-63
2023/01/17 05:56:23;;;;;;;2.35;1.90;;;;;;;;;;6341126;22;20176;-63
2023/01/17 05:58:49;;;;;;;3.10;2.10;;;;;;;;;;6340948;22;20150;-63
2023/01/17 06:01:16;;;;;;;2.55;2.10;;;;;;;;;;6340870;22;20150;-62
2023/01/17 06:03:42;;;;;;;2.42;2.22;;;;;;;;;;6342541;22;20181;-63
2023/01/17 06:06:08;;;;;;;2.10;1.90;;;;;;;;;;6342197;22;20134;-63
2023/01/17 06:08:34;;;;;;;2.42;2.10;;;;;;;;;;6342244;22;20146;-63
2023/01/17 06:11:00;;;;;;;2.45;2.15;;;;;;;;;;6342081;22;20188;-63
2023/01/17 06:13:26;;;;;;;3.60;2.40;;;;;;;;;;6342267;22;20134;-63
2023/01/17 06:15:52;;;;;;;2.72;2.28;;;;;;;;;;6341316;22;20199;-63
2023/01/17 06:18:18;;;;;;;2.65;2.25;;;;;;;;;;6340061;22;20138;-63
2023/01/17 06:20:44;;;;;;;2.90;2.42;;;;;;;;;;6341424;22;20169;-63
2023/01/17 06:23:11;;;;;;;3.08;2.33;;;;;;;;;;6343117;22;20130;-63
2023/01/17 06:25:38;;;;;;;3.03;2.28;;;;;;;;;;6342534;22;20139;-63
2023/01/17 06:28:04;;;;;;;3.47;2.38;;;;;;;;;;6342656;22;20549;-63
2023/01/17 06:30:30;;;;;;;2.95;2.50;;;;;;;;;;6342799;22;20450;-64
2023/01/17 06:32:56;;;;;;;2.90;2.45;;;;;;;;;;6343044;22;20192;-64
2023/01/17 06:35:22;;;;;;;3.00;2.70;;;;;;;;;;6342784;22;20139;-64
2023/01/17 06:37:54;;;;;;;3.08;2.30;;;;;;;;;;6342556;22;20166;-64
2023/01/17 06:40:19;;;;;;;2.92;2.63;;;;;;;;;;6342846;22;20138;-64
2023/01/17 06:42:45;;;;;;;2.40;2.20;;;;;;;;;;6342525;22;20141;-63
2023/01/17 06:45:11;;;;;;;2.78;2.47;;;;;;;;;;6342469;22;20211;-63
2023/01/17 06:47:40;;;;;;;3.28;2.70;;;;;;;;;;6342932;22;20149;-63
2023/01/17 06:50:07;;;;;;;3.05;2.60;;;;;;;;;;6343010;22;20162;-64
2023/01/17 06:52:33;;;;;;;3.50;2.88;;;;;;;;;;6342452;22;20565;-63
2023/01/17 06:54:59;;;;;;;2.63;2.42;;;;;;;;;;6342445;22;20149;-63
2023/01/17 06:57:25;;;;;;;3.03;2.55;;;;;;;;;;6342591;22;20615;-63
2023/01/17 06:59:51;;;;;;;3.25;2.67;;;;;;;;;;6342573;22;20188;-63
2023/01/17 07:02:16;;;;;;;3.13;2.70;;;;;;;;;;6342217;22;20233;-63
2023/01/17 07:04:42;;;;;;;3.00;2.70;;;;;;;;;;6342330;22;20130;-63
2023/01/17 07:07:08;;;;;;;2.83;2.55;;;;;;;;;;6342395;22;20154;-62
2023/01/17 07:09:34;;;;;;;3.05;2.75;;;;;;;;;;6342643;22;20160;-62
2023/01/17 07:12:00;;;;;;;4.68;2.72;;;;;;;;;;6342437;22;20142;-63
2023/01/17 07:14:27;;;;;;;3.47;3.05;;;;;;;;;;6342752;22;20487;-63
2023/01/17 07:16:53;;;;;;;3.25;2.80;;;;;;;;;;6342424;22;20230;-63
2023/01/17 07:19:19;;;;;;;4.72;3.75;;;;;;;;;;6342373;22;20429;-63
2023/01/17 07:21:45;;;;;;;6.05;3.60;;;;;;;;;;6342122;22;20161;-63
2023/01/17 07:24:11;;;;;;;4.43;4.00;;;;;;;;;;6342049;22;20145;-63
2023/01/17 07:26:39;;;;;;;5.03;4.20;;;;;;;;;;6342478;22;20156;-63
2023/01/17 07:29:05;;;;;;;4.88;3.92;;;;;;;;;;6342218;22;20275;-63
2023/01/17 07:31:35;;;;;;;5.50;4.20;;;;;;;;;;6342215;22;20502;-63
2023/01/17 07:34:01;;;;;;;4.97;4.10;;;;;;;;;;6342182;22;20218;-64
2023/01/17 07:36:27;;;;;;;5.35;4.15;;;;;;;;;;6342018;22;20465;-64
2023/01/17 07:38:53;;;;;;;5.13;4.15;;;;;;;;;;6342531;22;20134;-63
2023/01/17 07:41:19;;;;;;;6.85;4.30;;;;;;;;;;6342460;22;20523;-64
2023/01/17 07:43:45;;;;;;;5.65;4.10;;;;;;;;;;6341012;22;20177;-63
2023/01/17 07:46:14;;;;;;;4.68;3.72;;;;;;;;;;6342634;22;20138;-64
2023/01/17 07:48:39;;;;;;;4.82;3.85;;;;;;;;;;6342663;22;20139;-64
2023/01/17 07:51:06;;;;;;;4.57;3.50;;;;;;;;;;6342051;22;20154;-62
2023/01/17 07:53:32;;;;;;;4.70;3.55;;;;;;;;;;6342513;22;20134;-63
2023/01/17 07:56:05;;;;;;;4.72;3.60;;;;;;;;;;6342149;22;20153;-63
2023/01/17 07:58:31;;;;;;;4.07;3.20;;;;;;;;;;6341995;22;20146;-62
2023/01/17 08:01:08;;;;;;;3.63;2.80;;;;;;;;;;6342061;22;20606;-62
2023/01/17 08:03:38;;;;;;;3.97;2.78;;;;;;;;;;6342283;22;20126;-63
2023/01/17 08:06:28;;;;;;;4.55;3.00;;;;;;;;;;6341594;22;20633;-64
2023/01/17 08:08:57;;;;;;;4.80;2.55;;;;;;;;;;6343089;22;20131;-63
2023/01/17 08:11:23;;;;;;;3.67;2.60;;;;;;;;;;6341296;22;20569;-64
2023/01/17 08:13:56;;;;;;;3.15;2.40;;;;;;;;;;6341826;22;20142;-64
2023/01/17 08:16:22;;;;;;;3.25;2.13;;;;;;;;;;6341194;22;20617;-63
2023/01/17 08:18:48;;;;;;;3.28;2.20;;;;;;;;;;6341465;22;20139;-63
2023/01/17 08:21:15;;;;;;;3.13;2.00;;;;;;;;;;6345985;22;20579;-64
2023/01/17 08:23:41;;;;;;;2.75;2.03;;;;;;;;;;6347839;22;20495;-63
2023/01/17 08:26:07;;;;;;;3.30;2.30;;;;;;;;;;6347697;22;20138;-63
2023/01/17 08:28:33;;;;;;;3.17;2.15;;;;;;;;;;6354666;22;20221;-63
2023/01/17 08:31:05;;;;;;;2.58;1.90;;;;;;;;;;6350493;22;20166;-64
2023/01/17 08:33:31;;;;;;;2.80;1.90;;;;;;;;;;6347606;22;20206;-64
2023/01/17 08:35:57;;;;;;;2.60;1.83;;;;;;;;;;6345691;22;20150;-63
2023/01/17 08:38:24;;;;;;;3.60;1.98;;;;;;;;;;6345540;22;20145;-63
2023/01/17 08:40:51;;;;;;;2.75;1.98;;;;;;;;;;6343086;22;20169;-63
2023/01/17 08:43:17;;;;;;;2.17;1.63;;;;;;;;;;6342273;22;20585;-62
2023/01/17 08:45:47;;;;;;;1.77;1.58;;;;;;;;;;6341962;22;20138;-62
2023/01/17 08:48:13;;;;;;;2.53;1.85;;;;;;;;;;6341776;22;20142;-63
2023/01/17 08:50:39;;;;;;;1.98;1.50;;;;;;;;;;6342288;22;20199;-61
2023/01/17 08:53:05;;;;;;;2.03;1.48;;;;;;;;;;6341666;22;20154;-62
2023/01/17 08:55:32;;;;;;;3.08;1.73;;;;;;;;;;6342407;22;20157;-62
2023/01/17 08:57:58;;;;;;;1.30;1.20;;;;;;;;;;6341547;22;20215;-62
2023/01/17 09:00:27;;;;;;;1.60;1.27;;;;;;;;;;6341388;22;20142;-63
2023/01/17 09:02:53;;;;;;;1.65;1.30;;;;;;;;;;6341692;22;20145;-63
2023/01/17 09:05:19;;;;;;;1.35;1.10;;;;;;;;;;6342088;22;20432;-64
2023/01/17 09:07:45;;;;;;;1.25;1.02;;;;;;;;;;6341949;22;20157;-63
2023/01/17 09:10:11;;;;;;;1.05;0.90;;;;;;;;;;6342023;22;20138;-62
2023/01/17 09:12:39;;;;;;;1.35;1.17;;;;;;;;;;6341821;22;20217;-63
2023/01/17 09:15:05;;;;;;;1.27;1.10;;;;;;;;;;6341777;22;20231;-61
2023/01/17 09:17:31;;;;;;;1.42;1.27;;;;;;;;;;6342088;22;20196;-63
2023/01/17 09:19:58;;;;;;;1.10;0.90;;;;;;;;;;6342002;22;20565;-63
2023/01/17 09:22:24;;;;;;;1.08;0.93;;;;;;;;;;6341995;22;20221;-63
2023/01/17 09:24:50;;;;;;;0.88;0.75;;;;;;;;;;6342054;22;20170;-63
2023/01/17 09:27:16;;;;;;;0.60;0.60;;;;;;;;;;6342110;22;20138;-64
2023/01/17 09:29:42;;;;;;;0.40;0.40;;;;;;;;;;6341983;22;20146;-62
2023/01/17 09:32:08;;;;;;;0.95;0.30;;;;;;;;;;6341257;22;20152;-63
2023/01/17 09:34:34;;;;;;;0.40;0.30;;;;;;;;;;6341301;22;20154;-63
2023/01/17 09:37:00;;;;;;;0.20;0.20;;;;;;;;;;6341870;22;20162;-62
2023/01/17 09:39:26;;;;;;;1.17;0.20;;;;;;;;;;6342678;22;20142;-62
2023/01/17 09:41:52;;;;;;;0.40;0.20;;;;;;;;;;6344307;22;20146;-61
2023/01/17 09:44:29;;;;;;;3.20;0.20;;;;;;;;;;6342765;22;20144;-61
2023/01/17 09:46:57;;;;;;;0.20;0.20;;;;;;;;;;6343358;22;20738;-60
2023/01/17 09:49:30;;;;;;;0.20;0.13;;;;;;;;;;6343779;22;20448;-61
2023/01/17 09:51:56;;;;;;;0.30;0.30;;;;;;;;;;6342581;22;20191;-61
2023/01/17 09:54:23;;;;;;;0.10;0.10;;;;;;;;;;6341269;22;20153;-62
2023/01/17 09:56:58;;;;;;;0.30;0.15;;;;;;;;;;6342755;22;20166;-60
2023/01/17 09:59:31;;;;;;;0.17;0.10;;;;;;;;;;6343144;22;20122;-62
2023/01/17 10:02:12;;;;;;;1.15;0.30;;;;;;;;;;6342926;22;20482;-62
2023/01/17 10:04:50;;;;;;;0.55;0.20;;;;;;;;;;6343081;22;20149;-61
2023/01/17 10:07:19;;;;;;;1.88;0.20;;;;;;;;;;6343131;22;20585;-61
2023/01/17 10:09:53;;;;;;;0.40;0.28;;;;;;;;;;6344082;22;20173;-62
2023/01/17 10:12:25;;;;;;;0.30;0.30;;;;;;;;;;6343722;22;20142;-62
2023/01/17 10:14:51;;;;;;;1.55;0.17;;;;;;;;;;6343807;22;20143;-62
2023/01/17 10:17:17;;;;;;;0.38;0.13;;;;;;;;;;6343403;22;20196;-61
2023/01/17 10:20:02;;;;;;;1.73;0.22;;;;;;;;;;6343004;22;20468;-61
2023/01/17 10:22:29;;;;;;;2.25;0.30;;;;;;;;;;6342891;22;20154;-63
2023/01/17 10:25:14;;;;;;;1.23;0.40;;;;;;;;;;6343965;22;20154;-62
2023/01/17 10:27:43;;;;;;;3.00;0.85;;;;;;;;;;6343054;22;20146;-63
2023/01/17 10:30:15;;;;;;;2.35;0.20;;;;;;;;;;6343461;22;20229;-62
2023/01/17 10:32:44;;;;;;;2.10;0.30;;;;;;;;;;6342366;22;20576;-62
2023/01/17 10:35:18;;;;;;;1.58;0.38;;;;;;;;;;6342588;22;20143;-62
2023/01/17 10:37:44;;;;;;;0.82;0.30;;;;;;;;;;6342962;22;20158;-62
2023/01/17 10:40:21;;;;;;;2.65;0.68;;;;;;;;;;6342427;22;20545;-63
2023/01/17 10:42:56;;;;;;;1.27;0.50;;;;;;;;;;6342952;22;20160;-62
2023/01/17 10:45:27;;;;;;;1.70;0.40;;;;;;;;;;6342903;22;20133;-63
2023/01/17 10:48:08;;;;;;;1.50;0.52;;;;;;;;;;6342635;22;20160;-62
2023/01/17 10:50:40;;;;;;;1.35;0.60;;;;;;;;;;6342956;22;20418;-61
2023/01/17 10:53:11;;;;;;;2.88;0.70;;;;;;;;;;6342758;22;20459;-63
2023/01/17 10:55:42;;;;;;;1.92;0.47;;;;;;;;;;6342054;22;20185;-61
2023/01/17 10:58:11;;;;;;;1.15;0.50;;;;;;;;;;6342198;22;20245;-60
2023/01/17 11:00:47;;;;;;;4.30;0.40;;;;;;;;;;6342819;22;20138;-60
2023/01/17 11:03:14;;;;;;;1.60;0.50;;;;;;;;;;6342540;22;20149;-62
2023/01/17 11:05:41;;;;;;;0.98;0.52;;;;;;;;;;6342426;22;20164;-62
2023/01/17 11:08:08;;;;;;;0.30;0.22;;;;;;;;;;6342660;22;20224;-60
2023/01/17 11:10:35;;;;;;;2.92;0.68;;;;;;;;;;6342201;22;20217;-62
2023/01/17 11:13:02;;;;;;;2.05;0.60;;;;;;;;;;6342353;22;20603;-62
2023/01/17 11:15:28;;;;;;;1.60;0.80;;;;;;;;;;6342315;22;20142;-63
2023/01/17 11:18:01;;;;;;;3.42;0.80;;;;;;;;;;6342149;22;20471;-62
2023/01/17 11:20:31;;;;;;;3.67;1.02;;;;;;;;;;6342442;22;20146;-62
2023/01/17 11:23:03;;;;;;;2.67;0.55;;;;;;;;;;6342466;22;20431;-62
2023/01/17 11:25:32;;;;;;;4.35;0.77;;;;;;;;;;6342648;22;20173;-63
2023/01/17 11:28:22;;;;;;;2.63;0.60;;;;;;;;;;6345567;22;20139;-62
2023/01/17 11:30:52;;;;;;;1.88;0.60;;;;;;;;;;6343153;22;20169;-62
2023/01/17 11:33:28;;;;;;;1.90;0.50;;;;;;;;;;6342205;22;20236;-62
2023/01/17 11:35:56;;;;;;;2.22;0.50;;;;;;;;;;6341799;22;20126;-62
2023/01/17 11:38:23;;;;;;;4.25;0.52;;;;;;;;;;6341495;22;20162;-62
2023/01/17 11:40:49;;;;;;;3.00;0.70;;;;;;;;;;6342777;22;20209;-59
2023/01/17 11:43:26;;;;;;;4.07;0.90;;;;;;;;;;6342168;22;20156;-61
2023/01/17 11:46:00;;;;;;;2.15;0.43;;;;;;;;;;6342432;22;20138;-61
2023/01/17 11:48:32;;;;;;;2.72;0.80;;;;;;;;;;6342000;22;20452;-60
2023/01/17 11:50:59;;;;;;;3.97;0.80;;;;;;;;;;6341845;22;20131;-61
2023/01/17 11:53:26;;;;;;;2.25;0.80;;;;;;;;;;6341978;22;20146;-62
2023/01/17 11:55:56;;;;;;;5.25;0.80;;;;;;;;;;6342912;22;20142;-62
2023/01/17 11:58:22;;;;;;;2.53;0.70;;;;;;;;;;6342095;22;20252;-59
2023/01/17 12:00:59;;;;;;;1.70;0.45;;;;;;;;;;6342386;22;20145;-63
2023/01/17 12:03:25;;;;;;;2.45;0.60;;;;;;;;;;6367163;22;20153;-62
2023/01/17 12:05:56;;;;;;;1.95;0.73;;;;;;;;;;6342181;22;20162;-62
2023/01/17 12:08:29;;;;;;;2.47;0.70;;;;;;;;;;6342158;22;20169;-59
2023/01/17 12:11:04;;;;;;;4.63;0.98;;;;;;;;;;6342257;22;20127;-60
2023/01/17 12:16:30;;;;;;;3.50;0.85;;;;;;;;;;6340787;22;20363;-61
2023/01/17 12:19:02;;;;;;;2.20;0.85;;;;;;;;;;6341621;22;20119;-61
2023/01/17 12:21:37;;;;;;;3.45;1.13;;;;;;;;;;6341778;22;20472;-60
2023/01/17 12:24:03;;;;;;;1.88;0.70;;;;;;;;;;6341942;22;20146;-61
2023/01/17 12:26:29;;;;;;;2.58;1.00;;;;;;;;;;6342493;22;20228;-61
2023/01/17 12:29:02;;;;;;;3.17;1.05;;;;;;;;;;6341950;22;20471;-61
2023/01/17 12:31:28;;;;;;;2.78;1.00;;;;;;;;;;6341599;22;20138;-60
2023/01/17 12:34:09;;;;;;;2.42;0.90;;;;;;;;;;6341712;22;20158;-62
2023/01/17 12:36:54;;;;;;;2.72;0.65;;;;;;;;;;6342122;22;20477;-63
2023/01/17 12:39:23;;;;;;;3.22;0.90;;;;;;;;;;6342037;22;20211;-62
2023/01/17 12:42:04;;;;;;;3.67;1.02;;;;;;;;;;6341496;22;20139;-62
2023/01/17 12:44:50;;;;;;;5.18;0.80;;;;;;;;;;6341829;22;20203;-60
2023/01/17 12:47:18;;;;;;;1.92;0.70;;;;;;;;;;6342160;22;20211;-62
2023/01/17 12:49:52;;;;;;;3.33;0.90;;;;;;;;;;6341589;22;20142;-62
2023/01/17 12:52:18;;;;;;;3.50;0.60;;;;;;;;;;6341554;22;20187;-62
2023/01/17 12:54:47;;;;;;;4.80;0.75;;;;;;;;;;6341838;22;20142;-62
2023/01/17 12:57:22;;;;;;;2.67;1.10;;;;;;;;;;6341253;22;20181;-63
2023/01/17 12:59:57;;;;;;;3.60;0.70;;;;;;;;;;6341758;22;20130;-63
2023/01/17 13:02:36;;;;;;;3.58;0.70;;;;;;;;;;6341052;22;20142;-62
2023/01/17 13:05:14;;;;;;;3.80;0.80;;;;;;;;;;6341859;22;20127;-62
2023/01/17 13:07:45;;;;;;;2.28;0.68;;;;;;;;;;6341845;22;20184;-62
2023/01/17 13:10:27;;;;;;;5.10;0.73;;;;;;;;;;6341363;22;20146;-62
2023/01/17 13:12:55;;;;;;;8.88;0.77;;;;;;;;;;6342456;22;20545;-62
2023/01/17 13:15:28;;;;;;;1.92;0.70;;;;;;;;;;6342946;22;20199;-62
2023/01/17 13:18:02;;;;;;;4.70;1.45;;;;;;;;;;6343273;22;20254;-62
2023/01/17 13:20:32;;;;;;;1.83;0.75;;;;;;;;;;6342353;22;20161;-62
2023/01/17 13:23:11;;;;;;;1.88;1.02;;;;;;;;;;6342394;22;20138;-62
2023/01/17 13:25:44;;;;;;;4.05;0.88;;;;;;;;;;6341852;22;20188;-61
2023/01/17 13:28:17;;;;;;;0.80;0.60;;;;;;;;;;6341761;22;20221;-63
2023/01/17 13:30:52;;;;;;;1.83;0.70;;;;;;;;;;6341551;22;20178;-62
2023/01/17 13:33:31;;;;;;;4.47;0.80;;;;;;;;;;6341242;22;20418;-62
2023/01/17 13:36:00;;;;;;;1.65;0.73;;;;;;;;;;6341550;22;20142;-61
2023/01/17 13:38:53;;;;;;;3.47;0.80;;;;;;;;;;6341386;22;20166;-63
2023/01/17 13:41:38;;;;;;;2.70;0.60;;;;;;;;;;6341541;22;20486;-63
2023/01/17 13:44:23;;;;;;;4.40;0.82;;;;;;;;;;6341103;22;20218;-61
2023/01/17 13:46:56;;;;;;;1.50;0.73;;;;;;;;;;6341514;22;20202;-62
2023/01/17 13:49:32;;;;;;;2.88;0.77;;;;;;;;;;6341068;22;20561;-62
2023/01/17 13:52:06;;;;;;;4.43;0.90;;;;;;;;;;6340927;22;20490;-63
2023/01/17 13:54:32;;;;;;;3.15;1.00;;;;;;;;;;6341419;22;20142;-62
2023/01/17 13:57:19;;;;;;;4.47;0.90;;;;;;;;;;6341416;22;20217;-64
2023/01/17 13:59:44;;;;;;;1.90;0.90;;;;;;;;;;6315304;22;20542;-63
2023/01/17 14:02:29;;;;;;;2.83;0.85;;;;;;;;;;6341239;22;20134;-63
2023/01/17 14:05:22;;;;;;;2.33;0.85;;;;;;;;;;6340896;22;20574;-66
2023/01/17 14:07:48;;;;;;;3.20;0.70;;;;;;;;;;6341821;22;20135;-61
2023/01/17 14:10:29;;;;;;;4.35;1.13;;;;;;;;;;6341365;22;20536;-63
2023/01/17 14:12:55;;;;;;;1.80;0.50;;;;;;;;;;6341019;22;20131;-63
2023/01/17 14:15:23;;;;;;;0.90;0.52;;;;;;;;;;6341048;22;20142;-63
2023/01/17 14:17:50;;;;;;;1.80;0.60;;;;;;;;;;6341243;22;20166;-63
2023/01/17 14:20:17;;;;;;;2.13;0.60;;;;;;;;;;6341053;22;20139;-63
2023/01/17 14:22:52;;;;;;;0.60;0.60;;;;;;;;;;6341472;22;20135;-63
2023/01/17 14:25:28;;;;;;;2.58;0.40;;;;;;;;;;6341190;22;20220;-63
2023/01/17 14:27:56;;;;;;;4.57;1.10;;;;;;;;;;6341287;22;20489;-63
2023/01/17 14:30:31;;;;;;;2.53;0.75;;;;;;;;;;6357258;22;20157;-63
2023/01/17 14:33:00;;;;;;;1.42;0.20;;;;;;;;;;6362505;22;20142;-62
2023/01/17 14:35:28;;;;;;;2.47;0.40;;;;;;;;;;6359408;22;20150;-63
2023/01/17 14:37:56;;;;;;;0.57;0.47;;;;;;;;;;6356174;22;20162;-63
2023/01/17 14:40:25;;;;;;;1.92;0.52;;;;;;;;;;6353507;22;20143;-63
2023/01/17 14:42:57;;;;;;;1.67;0.40;;;;;;;;;;6351129;22;20148;-63
2023/01/17 14:45:28;;;;;;;2.70;0.65;;;;;;;;;;6351342;22;20153;-61
2023/01/17 14:47:55;;;;;;;1.70;0.30;;;;;;;;;;6344154;22;20142;-62
2023/01/17 14:50:23;;;;;;;3.65;0.60;;;;;;;;;;6343479;22;20219;-62
2023/01/17 14:53:07;;;;;;;1.95;0.73;;;;;;;;;;6343564;22;20209;-61
2023/01/17 14:55:33;;;;;;;1.98;0.60;;;;;;;;;;6343492;22;20141;-62
2023/01/17 14:57:59;;;;;;;2.15;0.60;;;;;;;;;;6341691;22;20174;-63
2023/01/17 15:00:28;;;;;;;2.40;0.47;;;;;;;;;;6342826;22;20142;-63
2023/01/17 15:02:56;;;;;;;2.70;0.52;;;;;;;;;;6343287;22;20138;-62
2023/01/17 15:05:23;;;;;;;3.10;0.70;;;;;;;;;;6342789;22;20138;-62
2023/01/17 15:07:57;;;;;;;0.85;0.43;;;;;;;;;;6342864;22;20146;-62
2023/01/17 15:10:30;;;;;;;2.53;0.43;;;;;;;;;;6342968;22;20153;-62
2023/01/17 15:12:58;;;;;;;2.20;0.40;;;;;;;;;;6342785;22;20138;-61
2023/01/17 15:15:31;;;;;;;3.20;0.60;;;;;;;;;;6342251;22;20182;-60
2023/01/17 15:18:12;;;;;;;1.67;0.40;;;;;;;;;;6342691;22;20193;-63
2023/01/17 15:20:39;;;;;;;2.00;0.70;;;;;;;;;;6343227;22;20571;-63
2023/01/17 15:23:05;;;;;;;3.10;0.45;;;;;;;;;;6343250;22;20143;-62
2023/01/17 15:25:31;;;;;;;1.05;0.40;;;;;;;;;;6342980;22;20632;-61
2023/01/17 15:27:57;;;;;;;2.30;0.63;;;;;;;;;;6342768;22;20537;-62
2023/01/17 15:30:25;;;;;;;1.20;0.47;;;;;;;;;;6343289;22;20149;-61
2023/01/17 15:32:51;;;;;;;3.28;0.70;;;;;;;;;;6342966;22;20145;-61
2023/01/17 15:35:18;;;;;;;3.47;0.57;;;;;;;;;;6343226;22;20171;-61
2023/01/17 15:37:44;;;;;;;1.73;0.50;;;;;;;;;;6343036;22;20158;-61
2023/01/17 15:40:17;;;;;;;0.57;0.45;;;;;;;;;;6342413;22;20203;-62
2023/01/17 15:42:46;;;;;;;1.95;0.75;;;;;;;;;;6342545;22;20158;-62
2023/01/17 15:45:15;;;;;;;2.28;0.75;;;;;;;;;;6342804;22;20580;-62
2023/01/17 15:47:41;;;;;;;1.63;0.60;;;;;;;;;;6342721;22;20142;-62
2023/01/17 15:50:20;;;;;;;1.42;0.70;;;;;;;;;;6343277;22;20150;-62
2023/01/17 15:52:49;;;;;;;3.70;0.80;;;;;;;;;;6341751;22;20149;-60
2023/01/17 15:55:21;;;;;;;1.38;0.68;;;;;;;;;;6342340;22;20174;-60
2023/01/17 15:57:47;;;;;;;2.08;0.63;;;;;;;;;;6342909;22;20169;-62
2023/01/17 16:00:18;;;;;;;3.97;0.60;;;;;;;;;;6342899;22;20230;-62
2023/01/17 16:02:45;;;;;;;1.08;0.50;;;;;;;;;;6343269;22;20200;-62
2023/01/17 16:05:23;;;;;;;5.03;0.60;;;;;;;;;;6343222;22;20221;-62
2023/01/17 16:07:49;;;;;;;0.90;0.60;;;;;;;;;;6342486;22;20160;-61
2023/01/17 16:10:19;;;;;;;1.50;0.63;;;;;;;;;;6343292;22;20237;-61
2023/01/17 16:12:46;;;;;;;0.93;0.68;;;;;;;;;;6342567;22;20150;-61
2023/01/17 16:15:13;;;;;;;1.77;0.65;;;;;;;;;;6342706;22;20597;-62
2023/01/17 16:17:41;;;;;;;1.10;0.55;;;;;;;;;;6342755;22;20222;-62
2023/01/17 16:20:14;;;;;;;3.50;0.75;;;;;;;;;;6343315;22;20473;-62